KHSA

Stennis International Airport

Bay St Louis, Mississippi, USA
METAR KHSA 181955Z 02004KT 7SM BKN010 BKN040 21/19 A3017
Observed Flight Rules
Dec-18 @ 19:55 UTC (27 minutes ago) Marginal Visual Flight Rules
Wind Visibility Clouds
20° at 4 knots 7 miles
  • Broken at 1,000' AGL
  • Broken at 4,000' AGL
Temperatures Readings
Current 21°C / 70°F
Dewpoint 19°C / 66°F
Humidity 88%
Altimeter 30.17" Hg
Pressure 1022 hPa
Elevation 7
METAR KHSA 181955Z 02004KT 7SM BKN010 BKN040 21/19 A3017
Observed Flight Rules
Dec-18 @ 19:55 UTC
(27 minutes ago)
MVFR
Wind Visibility
20° at 4 knots 7 miles
Clouds
  • Broken at 1,000' AGL
  • Broken at 4,000' AGL
Temperature Dewpoint
21°C / 70°F 19°C / 66°F
Humidity Altimeter Pressure
88% 30.17" Hg 1022 hPa